Time;durP1;ratioP1;P1;durP2;ratioP2;P2;SDS_P1;SDS_P2;PMS_P1;PMS_P2;Temp;Humidity;BMP_temperature;BMP_pressure;BME280_temperature;BME280_humidity;BME280_pressure;Samples;Min_cycle;Max_cycle;Signal;HPM_P1;HPM_P2
2023/05/30 00:02:14;;;;;;;5.77;5.07;;;;;;;17.68;52.60;155905.28;4989578;28;20941;-84
2023/05/30 00:04:41;;;;;;;5.50;4.53;;;;;;;17.65;52.65;155897.47;5004427;28;20553;-84
2023/05/30 00:07:07;;;;;;;5.47;4.73;;;;;;;17.61;52.95;155888.34;5003352;28;20961;-84
2023/05/30 00:09:34;;;;;;;4.90;4.50;;;;;;;17.59;53.12;155881.84;4984590;28;20525;-84
2023/05/30 00:12:01;;;;;;;5.10;4.60;;;;;;;17.54;53.18;155868.84;5001277;28;20439;-84
2023/05/30 00:14:27;;;;;;;5.30;4.47;;;;;;;17.52;53.65;155863.59;5001253;28;20513;-84
2023/05/30 00:16:56;;;;;;;4.80;4.40;;;;;;;17.49;53.83;155857.09;5001189;28;20442;-84
2023/05/30 00:19:24;;;;;;;4.90;4.37;;;;;;;17.47;54.41;155850.56;4984410;28;20450;-84
2023/05/30 00:21:52;;;;;;;6.60;6.00;;;;;;;17.41;54.33;155834.94;5001124;28;20450;-84
2023/05/30 00:24:19;;;;;;;8.00;5.90;;;;;;;17.45;54.83;155846.63;4970935;28;20443;-84
2023/05/30 00:26:45;;;;;;;6.10;5.10;;;;;;;17.39;54.88;155831.06;5000783;28;20438;-84
2023/05/30 00:29:12;;;;;;;5.37;4.70;;;;;;;17.37;55.19;155824.50;5013936;28;20976;-84
2023/05/30 00:31:39;;;;;;;8.47;6.17;;;;;;;17.21;55.91;155784.16;4987888;28;20528;-83
2023/05/30 00:34:06;;;;;;;7.03;5.03;;;;;;;17.15;56.26;155767.28;5003339;28;20992;-83
2023/05/30 00:36:34;;;;;;;5.37;4.80;;;;;;;17.08;56.50;155749.06;4989206;28;20870;-84
2023/05/30 00:39:01;;;;;;;6.17;4.87;;;;;;;16.98;56.83;155725.63;5003074;28;20457;-83
2023/05/30 00:41:28;;;;;;;5.93;5.30;;;;;;;16.97;57.24;155721.75;5004408;28;20968;-83
2023/05/30 00:43:54;;;;;;;5.53;5.00;;;;;;;16.89;57.82;155702.19;4988985;28;20545;-83
2023/05/30 00:46:23;;;;;;;5.53;5.03;;;;;;;16.84;57.50;155687.88;4987819;28;20457;-84
2023/05/30 00:48:50;;;;;;;5.47;4.97;;;;;;;16.83;57.36;155686.59;5019920;28;21067;-83
2023/05/30 00:51:19;;;;;;;4.70;4.20;;;;;;;16.82;57.31;155682.69;4987888;28;20812;-83
2023/05/30 00:53:47;;;;;;;5.53;4.90;;;;;;;16.80;57.48;155678.78;4988930;28;20446;-83
2023/05/30 00:56:14;;;;;;;7.90;4.63;;;;;;;16.83;57.59;155686.59;5024503;28;20893;-83
2023/05/30 00:58:40;;;;;;;6.30;4.77;;;;;;;16.79;57.80;155676.19;5009827;28;20463;-83
2023/05/30 01:01:07;;;;;;;4.77;4.37;;;;;;;16.73;58.03;155659.28;4993777;28;21080;-83
2023/05/30 01:03:34;;;;;;;7.57;5.00;;;;;;;16.73;57.82;155660.53;4993953;28;20441;-83
2023/05/30 01:06:01;;;;;;;5.80;5.10;;;;;;;16.71;58.14;155655.34;5027428;28;20436;-83
2023/05/30 01:08:27;;;;;;;5.17;4.67;;;;;;;16.67;58.34;155644.97;4997729;28;20448;-83
2023/05/30 01:11:16;;;;;;;5.07;4.00;;;;;;;16.61;58.66;155629.34;5029380;28;20598;-83
2023/05/30 01:13:48;;;;;;;7.33;4.93;;;;;;;16.56;59.21;155616.34;5013732;28;20976;-83
2023/05/30 01:16:20;;;;;;;5.57;4.80;;;;;;;16.50;59.45;155600.66;5013695;28;20999;-83
2023/05/30 01:18:51;;;;;;;6.80;5.03;;;;;;;16.51;59.97;155601.97;5029871;28;20444;-83
2023/05/30 01:21:19;;;;;;;6.97;5.03;;;;;;;16.45;60.04;155587.66;5013723;28;20447;-83
2023/05/30 01:23:56;;;;;;;4.83;4.33;;;;;;;16.45;60.13;155587.66;5013156;28;20444;-83
2023/05/30 01:26:40;;;;;;;6.33;5.70;;;;;;;16.38;60.09;155569.47;5013221;28;20431;-83
2023/05/30 01:29:09;;;;;;;8.77;5.50;;;;;;;16.35;60.42;155561.66;5007689;28;20772;-83
2023/05/30 01:31:36;;;;;;;5.47;4.80;;;;;;;16.30;60.59;155548.66;5010884;28;20536;-83
2023/05/30 01:34:03;;;;;;;8.00;5.37;;;;;;;16.26;60.85;155538.25;5005631;28;20463;-83
2023/05/30 01:36:30;;;;;;;5.40;4.90;;;;;;;16.27;61.01;155540.84;5029821;28;20811;-83
2023/05/30 01:38:57;;;;;;;4.83;4.33;;;;;;;16.26;60.84;155538.25;5014338;28;20478;-84
2023/05/30 01:41:32;;;;;;;5.43;4.93;;;;;;;16.18;61.08;155517.44;4996968;28;20986;-84
2023/05/30 01:44:02;;;;;;;5.33;4.83;;;;;;;16.19;61.36;155520.03;5013100;28;20715;-83
2023/05/30 01:46:32;;;;;;;7.43;4.33;;;;;;;16.17;61.34;155514.88;5015229;28;20428;-83
2023/05/30 01:49:09;;;;;;;5.73;4.80;;;;;;;16.15;61.57;155509.66;5013127;28;20471;-84
2023/05/30 01:51:41;;;;;;;6.90;5.10;;;;;;;16.06;61.96;155486.25;4993717;28;20460;-84
2023/05/30 01:54:09;;;;;;;5.10;4.57;;;;;;;16.08;61.94;155492.75;4976779;28;20448;-84
2023/05/30 01:56:36;;;;;;;5.47;4.73;;;;;;;16.07;62.15;155488.88;4977372;28;20487;-84
2023/05/30 01:59:03;;;;;;;5.57;5.00;;;;;;;16.05;62.10;155483.63;4993381;28;20467;-84
2023/05/30 02:01:32;;;;;;;5.03;4.57;;;;;;;16.01;62.37;155474.56;5006085;28;20444;-84
2023/05/30 02:03:58;;;;;;;6.73;5.73;;;;;;;15.96;62.42;155460.25;5013939;28;20448;-83
2023/05/30 02:06:25;;;;;;;5.80;4.60;;;;;;;15.91;62.76;155447.25;4978431;28;20448;-84
2023/05/30 02:08:51;;;;;;;5.03;4.50;;;;;;;15.85;63.26;155432.94;4993196;28;20445;-83
2023/05/30 02:11:18;;;;;;;8.17;5.53;;;;;;;15.84;63.22;155431.63;4993253;28;20488;-83
2023/05/30 02:13:45;;;;;;;5.50;4.57;;;;;;;15.79;63.27;155417.34;4977040;28;20439;-83
2023/05/30 02:16:12;;;;;;;4.80;4.00;;;;;;;15.70;63.74;155395.22;5009677;28;20475;-83
2023/05/30 02:18:41;;;;;;;6.93;4.87;;;;;;;15.60;64.13;155367.91;4993100;28;20458;-84
2023/05/30 02:21:08;;;;;;;5.53;4.93;;;;;;;15.59;64.33;155366.66;4975716;28;20440;-83
2023/05/30 02:23:35;;;;;;;6.50;5.70;;;;;;;15.50;64.52;155343.25;4991136;28;20534;-83
2023/05/30 02:26:04;;;;;;;5.30;4.40;;;;;;;15.49;64.30;155340.63;4990265;28;20536;-83
2023/05/30 02:28:31;;;;;;;7.07;5.23;;;;;;;15.46;64.67;155332.81;4994508;28;20479;-83
2023/05/30 02:30:58;;;;;;;8.93;4.73;;;;;;;15.46;64.74;155331.56;4996930;28;20454;-83
2023/05/30 02:33:24;;;;;;;6.57;5.40;;;;;;;15.45;64.93;155328.91;5011245;28;20440;-83
2023/05/30 02:35:52;;;;;;;6.13;4.77;;;;;;;15.40;65.34;155317.22;5009122;28;20487;-83
2023/05/30 02:38:19;;;;;;;6.40;5.10;;;;;;;15.47;65.05;155334.13;5025240;28;20447;-83
2023/05/30 02:40:46;;;;;;;4.87;4.37;;;;;;;15.52;65.00;155348.44;4992681;28;20450;-83
2023/05/30 02:43:13;;;;;;;6.83;4.73;;;;;;;15.48;65.31;155336.75;5009593;28;20439;-83
2023/05/30 02:45:40;;;;;;;5.70;4.37;;;;;;;15.39;65.29;155313.28;4976198;28;20451;-84
2023/05/30 02:48:08;;;;;;;6.43;5.20;;;;;;;15.34;65.75;155301.59;4976922;28;20468;-83
2023/05/30 02:50:35;;;;;;;6.20;5.07;;;;;;;15.40;65.71;155315.91;4992170;28;20511;-83
2023/05/30 02:53:07;;;;;;;7.20;5.00;;;;;;;15.42;65.61;155322.41;5008927;28;20435;-83
2023/05/30 02:55:33;;;;;;;5.37;4.70;;;;;;;15.38;65.77;155311.97;5020655;28;20538;-83
2023/05/30 02:58:32;;;;;;;6.57;4.30;;;;;;;15.33;66.02;155298.97;4961864;28;20439;-83
2023/05/30 03:01:03;;;;;;;5.27;4.77;;;;;;;15.29;65.95;155288.63;4978526;28;20447;-83
2023/05/30 03:03:31;;;;;;;5.20;4.50;;;;;;;15.28;66.32;155286.00;5005765;28;20464;-83
2023/05/30 03:06:06;;;;;;;6.23;4.30;;;;;;;15.18;66.77;155260.00;4989229;28;20445;-83
2023/05/30 03:08:56;;;;;;;4.60;4.07;;;;;;;15.25;66.57;155279.50;4974636;28;20524;-83
2023/05/30 03:11:22;;;;;;;5.30;4.20;;;;;;;15.23;66.64;155273.00;4992084;28;20481;-83
2023/05/30 03:13:50;;;;;;;5.20;4.50;;;;;;;15.17;66.89;155257.41;4977881;28;20498;-83
2023/05/30 03:16:17;;;;;;;6.20;5.27;;;;;;;15.19;66.95;155263.94;5005404;28;20521;-83
2023/05/30 03:18:43;;;;;;;5.80;5.20;;;;;;;15.23;66.78;155273.00;4972495;28;20438;-83
2023/05/30 03:21:11;;;;;;;6.03;5.20;;;;;;;15.20;66.94;155266.50;4988856;28;20438;-83
2023/05/30 03:23:38;;;;;;;6.00;5.13;;;;;;;15.18;66.71;155261.31;5005155;28;20531;-83
2023/05/30 03:26:07;;;;;;;6.00;4.90;;;;;;;15.16;67.12;155254.81;4988703;28;20793;-83
2023/05/30 03:28:33;;;;;;;8.80;5.00;;;;;;;15.06;67.25;155228.84;5013434;28;20541;-83
2023/05/30 03:31:27;;;;;;;5.40;4.20;;;;;;;15.09;67.48;155236.66;4990975;28;20804;-83
2023/05/30 03:33:54;;;;;;;5.97;4.93;;;;;;;15.06;67.62;155228.84;4991858;28;20434;-83
2023/05/30 03:36:21;;;;;;;5.27;4.40;;;;;;;15.02;67.83;155218.44;4975418;28;20681;-83
2023/05/30 03:38:48;;;;;;;7.73;5.33;;;;;;;14.98;68.09;155208.06;5008408;28;20813;-83
2023/05/30 03:41:16;;;;;;;8.03;4.83;;;;;;;15.00;68.02;155213.25;5008018;28;20445;-83
2023/05/30 03:43:42;;;;;;;6.63;4.73;;;;;;;14.98;68.41;155208.06;4992066;28;20846;-83
2023/05/30 03:46:09;;;;;;;7.90;5.17;;;;;;;14.95;68.32;155200.25;4990947;28;20935;-83
2023/05/30 03:48:35;;;;;;;7.63;4.80;;;;;;;14.91;68.36;155189.84;4975629;28;20445;-83
2023/05/30 03:51:02;;;;;;;5.33;4.23;;;;;;;14.88;68.97;155182.09;5008045;28;20476;-83
2023/05/30 03:53:29;;;;;;;5.23;4.73;;;;;;;14.90;68.77;155187.28;5009510;28;20441;-83
2023/05/30 03:55:56;;;;;;;5.63;5.10;;;;;;;14.89;68.81;155185.97;4974887;28;20991;-83
2023/05/30 03:58:23;;;;;;;4.83;4.30;;;;;;;14.88;68.89;155182.09;5008041;28;20686;-83
2023/05/30 04:00:50;;;;;;;7.20;4.90;;;;;;;14.85;69.21;155174.28;5007430;28;20449;-83
2023/05/30 04:03:19;;;;;;;5.50;4.47;;;;;;;14.83;69.12;155169.06;4991378;28;20464;-83
2023/05/30 04:05:47;;;;;;;6.07;4.93;;;;;;;14.80;69.57;155161.31;4991109;28;20451;-83
2023/05/30 04:08:14;;;;;;;4.80;4.30;;;;;;;14.87;69.24;155179.47;4991377;28;20551;-84
2023/05/30 04:10:41;;;;;;;7.23;4.90;;;;;;;14.84;69.45;155171.66;4974563;28;20736;-83
2023/05/30 04:13:08;;;;;;;7.13;4.83;;;;;;;14.88;69.10;155183.34;5007794;28;20460;-83
2023/05/30 04:15:35;;;;;;;6.87;5.00;;;;;;;14.84;69.46;155171.66;5009108;28;20496;-83
2023/05/30 04:18:02;;;;;;;4.70;4.30;;;;;;;14.84;69.55;155171.66;5009494;28;20866;-83
2023/05/30 04:20:30;;;;;;;4.87;4.37;;;;;;;14.81;69.44;155163.88;4975077;28;20521;-83
2023/05/30 04:22:56;;;;;;;5.87;4.97;;;;;;;14.81;69.61;155163.88;5007459;28;20445;-83
2023/05/30 04:25:23;;;;;;;5.30;4.50;;;;;;;14.80;69.40;155162.56;5007719;28;20442;-83
2023/05/30 04:27:49;;;;;;;5.00;4.47;;;;;;;14.81;69.98;155165.19;4995020;28;20440;-83
2023/05/30 04:30:16;;;;;;;6.63;4.93;;;;;;;14.85;69.77;155174.28;4977719;28;20448;-83
2023/05/30 04:32:45;;;;;;;5.77;5.27;;;;;;;14.81;70.03;155163.88;4975449;28;20893;-83
2023/05/30 04:35:13;;;;;;;5.77;4.90;;;;;;;14.85;69.84;155174.28;4992043;28;20450;-83
2023/05/30 04:37:43;;;;;;;6.40;4.87;;;;;;;14.90;69.60;155187.28;4985230;28;20450;-83
2023/05/30 04:40:12;;;;;;;7.47;4.70;;;;;;;14.88;69.66;155182.09;4971199;28;20949;-82
2023/05/30 04:42:38;;;;;;;6.07;5.10;;;;;;;14.87;69.91;155179.47;4971483;28;20444;-83
2023/05/30 04:45:06;;;;;;;5.10;4.43;;;;;;;14.88;70.22;155183.34;4971552;28;20441;-83
2023/05/30 04:47:33;;;;;;;6.10;5.20;;;;;;;14.89;70.17;155185.97;4989331;28;20840;-82
2023/05/30 04:50:01;;;;;;;5.23;4.40;;;;;;;14.93;70.32;155196.34;4971468;28;20559;-83
2023/05/30 04:52:28;;;;;;;5.57;4.33;;;;;;;15.00;69.82;155213.25;4970920;28;20537;-83
2023/05/30 04:54:56;;;;;;;6.33;4.70;;;;;;;14.98;70.27;155208.06;4996839;28;20446;-82
2023/05/30 04:57:22;;;;;;;6.03;4.50;;;;;;;15.01;70.09;155217.13;5007012;28;20482;-83
2023/05/30 04:59:49;;;;;;;6.73;4.77;;;;;;;15.05;70.08;155227.53;5006866;28;20444;-82
2023/05/30 05:02:17;;;;;;;7.10;5.07;;;;;;;15.10;69.85;155239.22;4990758;28;20966;-82
2023/05/30 05:04:43;;;;;;;5.30;4.53;;;;;;;15.14;69.57;155249.66;4990764;28;20511;-82
2023/05/30 05:07:11;;;;;;;6.77;4.90;;;;;;;15.19;69.74;155262.63;5001604;28;20429;-83
2023/05/30 05:09:38;;;;;;;5.10;4.30;;;;;;;15.29;69.80;155288.63;4988649;28;20481;-82
2023/05/30 05:12:05;;;;;;;5.90;5.27;;;;;;;15.32;69.35;155295.09;5013116;28;20503;-83
2023/05/30 05:14:32;;;;;;;7.57;4.40;;;;;;;15.39;69.52;155313.28;5008831;28;20446;-83
2023/05/30 05:16:59;;;;;;;6.90;5.87;;;;;;;15.49;69.13;155339.38;4990401;28;20805;-83
2023/05/30 05:19:25;;;;;;;5.20;4.70;;;;;;;15.55;68.06;155356.25;5023327;28;20448;-83
2023/05/30 05:21:52;;;;;;;6.97;5.20;;;;;;;15.58;68.45;155362.75;5023181;28;20515;-83
2023/05/30 05:24:20;;;;;;;5.87;4.60;;;;;;;15.59;68.39;155365.34;5006991;28;20464;-82
2023/05/30 05:26:46;;;;;;;7.00;5.43;;;;;;;15.66;68.03;155384.84;5008544;28;20434;-83
2023/05/30 05:29:13;;;;;;;5.33;4.23;;;;;;;15.64;68.41;155378.34;4998220;28;20855;-83
2023/05/30 05:31:40;;;;;;;6.70;4.93;;;;;;;15.64;67.81;155378.34;4987313;28;20444;-83
2023/05/30 05:34:06;;;;;;;7.63;5.30;;;;;;;15.69;68.27;155391.34;5003613;28;20442;-83
2023/05/30 05:36:33;;;;;;;5.83;4.27;;;;;;;15.74;67.56;155405.66;4990359;28;20488;-83
2023/05/30 05:38:59;;;;;;;5.93;4.90;;;;;;;15.75;67.53;155406.97;5006606;28;20449;-83
2023/05/30 05:41:27;;;;;;;5.20;4.70;;;;;;;15.79;66.75;155417.34;5009691;28;20516;-83
2023/05/30 05:43:54;;;;;;;7.67;5.03;;;;;;;15.80;66.94;155419.94;5011751;28;20507;-83
2023/05/30 05:46:21;;;;;;;16.63;4.40;;;;;;;15.95;66.41;155457.63;5011405;28;20899;-83
2023/05/30 05:48:47;;;;;;;4.73;4.17;;;;;;;16.04;66.86;155481.06;5027238;28;20435;-83
2023/05/30 05:51:14;;;;;;;5.03;4.17;;;;;;;16.13;66.01;155505.75;5026822;28;20849;-83
2023/05/30 05:53:40;;;;;;;5.77;4.30;;;;;;;16.15;66.23;155509.66;5011945;28;20528;-83
2023/05/30 05:56:07;;;;;;;5.40;4.50;;;;;;;16.10;64.94;155496.63;5011981;28;20703;-83
2023/05/30 05:58:35;;;;;;;4.90;4.13;;;;;;;16.09;66.46;155494.06;5027248;28;20443;-83
2023/05/30 06:01:02;;;;;;;5.67;4.47;;;;;;;16.09;66.17;155495.38;5026883;28;20906;-83
2023/05/30 06:03:28;;;;;;;8.87;5.00;;;;;;;16.08;66.53;155491.44;4998450;28;20453;-83
2023/05/30 06:05:55;;;;;;;5.90;4.47;;;;;;;16.08;66.25;155492.75;5007031;28;20466;-83
2023/05/30 06:08:21;;;;;;;6.20;5.03;;;;;;;16.16;66.17;155512.25;4996681;28;20437;-83
2023/05/30 06:10:48;;;;;;;5.60;4.80;;;;;;;16.24;66.16;155534.34;5024232;28;20504;-83
2023/05/30 06:13:15;;;;;;;6.90;3.80;;;;;;;16.30;65.41;155549.97;5030427;28;20442;-83
2023/05/30 06:15:43;;;;;;;6.37;4.47;;;;;;;16.32;65.99;155553.84;5030358;28;20537;-83
2023/05/30 06:18:12;;;;;;;5.20;4.70;;;;;;;16.39;66.07;155572.06;5030490;28;20470;-83
2023/05/30 06:20:38;;;;;;;7.10;4.67;;;;;;;16.53;64.38;155608.53;5004873;28;20457;-83
2023/05/30 06:23:05;;;;;;;9.40;4.63;;;;;;;16.54;63.88;155611.16;4995965;28;20441;-83
2023/05/30 06:25:32;;;;;;;5.07;4.40;;;;;;;16.50;63.78;155599.38;4992340;28;20444;-83
2023/05/30 06:27:58;;;;;;;5.10;4.23;;;;;;;16.61;62.89;155629.34;4993765;28;20564;-83
2023/05/30 06:30:25;;;;;;;5.63;4.40;;;;;;;16.67;63.36;155644.97;5009595;28;20451;-83
2023/05/30 06:32:52;;;;;;;6.13;4.97;;;;;;;16.71;63.80;155655.34;5009267;28;20444;-83
2023/05/30 06:35:19;;;;;;;7.03;4.53;;;;;;;16.60;63.83;155626.72;5009931;28;20451;-83
2023/05/30 06:37:46;;;;;;;6.90;5.60;;;;;;;16.59;63.72;155622.84;5010414;28;20574;-83
2023/05/30 06:40:12;;;;;;;6.60;5.20;;;;;;;16.62;64.10;155631.97;5011211;28;20456;-84
2023/05/30 06:42:39;;;;;;;6.63;5.93;;;;;;;16.64;64.29;155637.16;5009471;28;20858;-83
2023/05/30 06:45:06;;;;;;;6.10;4.00;;;;;;;16.70;63.08;155652.78;5010982;28;20542;-83
2023/05/30 06:47:33;;;;;;;6.10;4.50;;;;;;;16.80;63.86;155678.78;5010463;28;20854;-83
2023/05/30 06:50:00;;;;;;;4.83;4.03;;;;;;;17.00;62.43;155729.50;5010385;28;20943;-84
2023/05/30 06:52:27;;;;;;;9.50;5.37;;;;;;;17.03;62.97;155738.63;5008593;28;20449;-84
2023/05/30 06:54:53;;;;;;;6.60;4.80;;;;;;;16.98;62.40;155725.63;4992500;28;20884;-83
2023/05/30 06:57:20;;;;;;;7.73;4.40;;;;;;;17.00;62.70;155729.50;5025628;28;20476;-84
2023/05/30 06:59:46;;;;;;;5.17;4.13;;;;;;;17.17;61.59;155772.47;5025464;28;20449;-83
2023/05/30 07:02:13;;;;;;;10.47;5.13;;;;;;;17.30;62.03;155806.28;5009096;28;20502;-83
2023/05/30 07:04:39;;;;;;;5.60;4.37;;;;;;;17.54;60.39;155868.84;5009878;28;21058;-84
2023/05/30 07:07:07;;;;;;;8.20;5.13;;;;;;;17.59;60.17;155881.84;5008864;28;20444;-84
2023/05/30 07:09:34;;;;;;;7.03;4.73;;;;;;;17.78;60.46;155931.31;5008405;28;20488;-83
2023/05/30 07:12:00;;;;;;;9.30;4.83;;;;;;;17.91;60.10;155965.16;5024777;28;20445;-84
2023/05/30 07:14:27;;;;;;;4.67;4.27;;;;;;;17.84;59.61;155946.97;5008740;28;20448;-84
2023/05/30 07:16:54;;;;;;;5.60;4.10;;;;;;;17.79;59.01;155932.63;5008678;28;20528;-84
2023/05/30 07:19:20;;;;;;;4.70;4.00;;;;;;;17.81;60.45;155937.84;5008051;28;21055;-84
2023/05/30 07:21:47;;;;;;;5.30;4.77;;;;;;;17.89;59.49;155959.97;5008481;28;20433;-84
2023/05/30 07:24:14;;;;;;;7.43;4.80;;;;;;;17.92;60.14;155966.50;5010004;28;20449;-84
2023/05/30 07:26:41;;;;;;;5.07;3.87;;;;;;;18.01;59.85;155989.88;5008691;28;20940;-86
2023/05/30 07:29:07;;;;;;;5.20;4.70;;;;;;;18.09;59.52;156010.72;5004282;28;20460;-84
2023/05/30 07:31:34;;;;;;;5.00;4.47;;;;;;;18.15;59.71;156027.69;5009423;28;20947;-84
2023/05/30 07:34:01;;;;;;;5.17;4.40;;;;;;;18.11;59.39;156015.94;5009307;28;20449;-84
2023/05/30 07:36:27;;;;;;;5.17;4.30;;;;;;;17.97;59.79;155980.81;5011077;28;20441;-84
2023/05/30 07:38:54;;;;;;;6.53;4.67;;;;;;;17.99;59.83;155986.00;5010854;28;20851;-84
2023/05/30 07:41:22;;;;;;;7.20;5.20;;;;;;;18.14;59.66;156025.06;5010618;28;20456;-84
2023/05/30 07:43:49;;;;;;;6.93;5.97;;;;;;;18.41;58.52;156092.78;5009040;28;20722;-84
2023/05/30 07:46:15;;;;;;;7.20;5.53;;;;;;;18.50;58.50;156116.31;4992396;28;20820;-84
2023/05/30 07:48:42;;;;;;;7.53;5.17;;;;;;;18.62;58.62;156147.53;4973083;28;21064;-84
2023/05/30 07:51:09;;;;;;;6.03;4.90;;;;;;;18.76;57.41;156185.34;4990930;28;20429;-84
2023/05/30 07:53:36;;;;;;;6.50;4.70;;;;;;;18.48;57.72;156111.09;4988758;28;20433;-83
2023/05/30 07:56:03;;;;;;;7.20;5.30;;;;;;;18.53;58.29;156124.13;4990504;28;20500;-84
2023/05/30 07:58:31;;;;;;;8.70;5.47;;;;;;;18.60;58.38;156142.34;4989184;28;20474;-84
2023/05/30 08:00:58;;;;;;;5.63;4.60;;;;;;;18.94;58.66;156230.94;4990155;28;20816;-84
2023/05/30 08:03:25;;;;;;;6.80;4.63;;;;;;;19.07;57.03;156264.81;5008241;28;20465;-84
2023/05/30 08:05:52;;;;;;;6.70;4.33;;;;;;;19.16;57.96;156288.28;5007324;28;20527;-84
2023/05/30 08:08:19;;;;;;;6.53;4.60;;;;;;;19.14;56.51;156283.03;5025170;28;20441;-84
2023/05/30 08:10:45;;;;;;;6.40;4.60;;;;;;;19.20;56.77;156298.69;5009420;28;20476;-85
2023/05/30 08:13:13;;;;;;;6.07;4.60;;;;;;;19.43;56.01;156357.41;5010290;28;20443;-85
2023/05/30 08:15:41;;;;;;;7.63;5.10;;;;;;;19.67;55.80;156419.94;5016088;28;20437;-85
2023/05/30 08:18:08;;;;;;;4.73;4.13;;;;;;;19.94;54.73;156489.06;5035271;28;20472;-85
2023/05/30 08:20:35;;;;;;;4.93;4.43;;;;;;;20.08;52.46;156524.25;5009075;28;20445;-85
2023/05/30 08:23:02;;;;;;;5.63;4.67;;;;;;;20.02;52.23;156511.22;5009365;28;20875;-84
2023/05/30 08:25:32;;;;;;;5.40;4.47;;;;;;;20.24;52.81;156566.06;5023949;28;20445;-85
2023/05/30 08:27:59;;;;;;;5.47;4.90;;;;;;;20.49;52.65;156631.28;4991138;28;20430;-85
2023/05/30 08:30:25;;;;;;;6.60;5.37;;;;;;;20.24;51.10;156566.06;5007293;28;20452;-84
2023/05/30 08:32:53;;;;;;;5.90;4.80;;;;;;;20.18;52.14;156551.66;5008979;28;20441;-85
2023/05/30 08:35:20;;;;;;;7.20;5.10;;;;;;;20.22;51.28;156562.13;5020717;28;20455;-85
2023/05/30 08:37:47;;;;;;;5.00;4.37;;;;;;;20.35;52.01;156594.75;5002574;28;20468;-84
2023/05/30 08:40:14;;;;;;;5.53;5.00;;;;;;;20.50;51.13;156635.19;5007414;28;20479;-84
2023/05/30 08:42:42;;;;;;;6.70;4.83;;;;;;;20.51;50.61;156637.81;5007498;28;20440;-85
2023/05/30 08:45:09;;;;;;;5.10;4.30;;;;;;;20.41;50.67;156611.69;5009137;28;20495;-85
2023/05/30 08:47:36;;;;;;;4.87;4.30;;;;;;;20.45;51.73;156622.16;4991061;28;20861;-84
2023/05/30 08:50:07;;;;;;;6.87;5.43;;;;;;;20.41;50.33;156611.69;5007248;28;20518;-85
2023/05/30 08:52:34;;;;;;;6.40;4.90;;;;;;;20.28;51.47;156576.50;5004840;28;20442;-84
2023/05/30 08:55:03;;;;;;;5.93;4.40;;;;;;;20.27;51.31;156575.19;4987862;28;20577;-85
2023/05/30 08:57:35;;;;;;;5.77;4.83;;;;;;;20.10;51.08;156530.78;4989554;28;20473;-85
2023/05/30 09:00:05;;;;;;;8.07;5.10;;;;;;;20.13;52.41;156537.31;4989344;28;20468;-84
2023/05/30 09:02:34;;;;;;;5.17;4.67;;;;;;;20.31;51.40;156584.31;4988264;28;20445;-84
2023/05/30 09:05:00;;;;;;;5.30;4.80;;;;;;;20.21;51.11;156559.50;4987761;28;20445;-85
2023/05/30 09:07:28;;;;;;;6.17;4.77;;;;;;;20.12;51.94;156534.72;4999760;28;20441;-85
2023/05/30 09:09:55;;;;;;;6.33;4.43;;;;;;;20.53;52.13;156643.03;5019533;28;20515;-85
2023/05/30 09:12:23;;;;;;;7.43;4.67;;;;;;;20.51;50.82;156637.81;5020990;28;20485;-85
2023/05/30 09:14:49;;;;;;;5.10;4.60;;;;;;;20.41;51.70;156611.69;5004213;28;20973;-85
2023/05/30 09:17:16;;;;;;;6.43;5.20;;;;;;;20.45;51.27;156622.16;4992433;28;20469;-85
2023/05/30 09:19:42;;;;;;;8.37;5.30;;;;;;;20.36;51.87;156597.38;5024278;28;20898;-85
2023/05/30 09:22:09;;;;;;;5.60;5.07;;;;;;;20.62;51.40;156666.47;5008245;28;20438;-85
2023/05/30 09:24:58;;;;;;;5.40;4.40;;;;;;;20.92;50.32;156742.16;5008044;28;20470;-85
2023/05/30 09:27:25;;;;;;;5.23;4.67;;;;;;;20.48;50.57;156629.97;5023849;28;20453;-84
2023/05/30 09:29:52;;;;;;;6.53;4.50;;;;;;;20.51;52.08;156637.81;5007568;28;20789;-85
2023/05/30 09:32:18;;;;;;;7.20;4.80;;;;;;;20.66;50.70;156675.63;4993149;28;20433;-85
2023/05/30 09:34:53;;;;;;;5.30;4.80;;;;;;;20.65;50.68;156673.03;5024041;28;20441;-84
2023/05/30 09:37:19;;;;;;;6.00;4.40;;;;;;;20.84;51.26;156722.59;4993310;28;20567;-85
2023/05/30 09:40:06;;;;;;;6.47;4.63;;;;;;;20.78;49.79;156705.66;4991710;28;20520;-85
2023/05/30 09:42:38;;;;;;;5.67;4.57;;;;;;;20.77;51.48;156704.34;4993570;28;20995;-85
2023/05/30 09:45:07;;;;;;;6.00;4.83;;;;;;;20.62;51.18;156665.22;4974669;28;20462;-84
2023/05/30 09:47:38;;;;;;;6.30;4.10;;;;;;;20.72;51.22;156689.97;4987908;28;20442;-85
2023/05/30 09:50:06;;;;;;;5.80;4.50;;;;;;;20.83;50.74;156720.00;4972533;28;20453;-85
2023/05/30 09:52:33;;;;;;;6.40;5.17;;;;;;;20.62;51.02;156666.47;5004137;28;20443;-84
2023/05/30 09:55:00;;;;;;;7.83;4.63;;;;;;;20.69;50.53;156683.47;4987455;28;20450;-85
2023/05/30 09:57:28;;;;;;;4.73;4.30;;;;;;;20.77;51.20;156703.03;4972808;28;20477;-85
2023/05/30 09:59:54;;;;;;;6.93;5.00;;;;;;;20.44;50.99;156619.53;5003439;28;20860;-85
2023/05/30 10:02:24;;;;;;;5.70;4.20;;;;;;;20.41;50.29;156611.69;4973401;28;20513;-85
2023/05/30 10:04:52;;;;;;;4.90;4.40;;;;;;;20.25;51.97;156570.00;4976522;28;20461;-85
2023/05/30 10:07:19;;;;;;;8.20;5.53;;;;;;;20.21;50.87;156558.19;4998172;28;20944;-85
2023/05/30 10:09:49;;;;;;;5.63;4.50;;;;;;;20.29;51.65;156580.41;5022863;28;20469;-85
2023/05/30 10:12:16;;;;;;;6.10;4.50;;;;;;;20.63;50.82;156669.09;4992050;28;20426;-86
2023/05/30 10:14:44;;;;;;;4.90;4.40;;;;;;;21.05;49.60;156776.06;4991362;28;20470;-86
2023/05/30 10:17:17;;;;;;;5.00;4.50;;;;;;;21.18;49.91;156810.09;5008028;28;20459;-86
2023/05/30 10:19:47;;;;;;;13.83;5.80;;;;;;;21.01;49.21;156765.66;4986693;28;20541;-85
2023/05/30 10:22:14;;;;;;;7.10;4.80;;;;;;;20.69;49.58;156683.47;4987138;28;20434;-85
2023/05/30 10:24:43;;;;;;;8.13;4.20;;;;;;;20.68;49.61;156679.56;4987014;28;20442;-85
2023/05/30 10:27:11;;;;;;;7.27;4.90;;;;;;;20.78;49.18;156706.97;4971767;28;20449;-86
2023/05/30 10:29:58;;;;;;;5.80;4.47;;;;;;;20.87;48.86;156730.41;4988238;28;20454;-86
2023/05/30 10:32:26;;;;;;;6.60;4.60;;;;;;;20.92;50.24;156743.47;4990352;28;20438;-85
2023/05/30 10:34:58;;;;;;;5.53;4.57;;;;;;;21.16;49.57;156804.84;4984677;28;20446;-85
2023/05/30 10:37:25;;;;;;;6.33;5.07;;;;;;;21.15;48.22;156803.53;5003106;28;20556;-85
2023/05/30 10:39:59;;;;;;;8.93;4.70;;;;;;;20.88;49.43;156731.75;4972046;28;20822;-85
2023/05/30 10:42:28;;;;;;;5.17;4.47;;;;;;;20.94;48.75;156747.41;5020731;28;20862;-84
2023/05/30 10:45:03;;;;;;;4.50;4.10;;;;;;;21.08;48.35;156783.97;4990891;28;21028;-85
2023/05/30 10:47:43;;;;;;;4.97;4.47;;;;;;;21.34;48.61;156850.56;4991585;28;20434;-85
2023/05/30 10:50:13;;;;;;;5.50;4.50;;;;;;;21.22;46.70;156820.53;4991436;28;20468;-84
2023/05/30 10:52:40;;;;;;;5.90;4.10;;;;;;;21.07;48.34;156781.38;4992725;28;20465;-84
2023/05/30 10:55:10;;;;;;;4.63;4.13;;;;;;;21.00;48.17;156764.34;4986403;28;20469;-84
2023/05/30 10:57:37;;;;;;;5.30;4.70;;;;;;;20.71;48.29;156687.34;4970145;28;20698;-85
2023/05/30 11:00:17;;;;;;;5.23;4.73;;;;;;;20.76;48.95;156701.72;4971644;28;20775;-84
2023/05/30 11:02:52;;;;;;;5.77;4.53;;;;;;;20.85;49.68;156725.22;5002786;28;20506;-84
2023/05/30 11:05:20;;;;;;;8.03;4.40;;;;;;;20.97;49.21;156755.25;5002651;28;20453;-83
2023/05/30 11:07:47;;;;;;;5.90;4.30;;;;;;;20.99;49.48;156760.44;5016107;28;20541;-84
2023/05/30 11:10:14;;;;;;;4.80;4.10;;;;;;;21.24;48.40;156825.72;4987597;28;20553;-84
2023/05/30 11:12:42;;;;;;;8.30;5.00;;;;;;;21.27;49.05;156832.25;4997332;28;20442;-84
2023/05/30 11:15:15;;;;;;;6.37;4.00;;;;;;;21.40;47.95;156867.50;4990190;28;20450;-85
2023/05/30 11:17:41;;;;;;;6.90;4.40;;;;;;;21.30;47.41;156841.41;5006403;28;20536;-84
2023/05/30 11:20:12;;;;;;;5.70;4.77;;;;;;;21.22;47.41;156820.53;5010391;28;20546;-84
2023/05/30 11:22:39;;;;;;;7.30;4.40;;;;;;;21.14;47.87;156799.63;5042175;28;20418;-84
2023/05/30 11:25:18;;;;;;;5.53;4.53;;;;;;;21.27;48.07;156833.56;5008757;28;20999;-83
2023/05/30 11:28:12;;;;;;;6.10;4.50;;;;;;;21.38;46.90;156862.28;4972482;28;20500;-83
2023/05/30 11:30:45;;;;;;;6.27;4.60;;;;;;;21.29;46.53;156838.78;5021664;28;20468;-85